sensor_id;sensor_type;location;lat;lon;timestamp;noise_LAeq;noise_LA_min;noise_LA_max;noise_LA01;noise_LA95
41704;Laerm;861;48.808;9.006;2023-07-31T00:01:40;35.70;34.44;36.74;;
41704;Laerm;861;48.808;9.006;2023-07-31T00:04:10;35.72;34.52;36.90;;
41704;Laerm;861;48.808;9.006;2023-07-31T00:06:37;35.74;34.56;36.86;;
41704;Laerm;861;48.808;9.006;2023-07-31T00:09:04;35.77;34.48;36.87;;
41704;Laerm;861;48.808;9.006;2023-07-31T00:11:30;35.80;34.44;37.04;;
41704;Laerm;861;48.808;9.006;2023-07-31T00:13:57;35.93;34.77;37.06;;
41704;Laerm;861;48.808;9.006;2023-07-31T00:16:24;36.01;34.71;37.61;;
41704;Laerm;861;48.808;9.006;2023-07-31T00:18:51;36.07;34.79;37.31;;
41704;Laerm;861;48.808;9.006;2023-07-31T00:21:17;36.05;34.93;37.23;;
41704;Laerm;861;48.808;9.006;2023-07-31T00:23:44;36.08;34.80;37.10;;
41704;Laerm;861;48.808;9.006;2023-07-31T00:26:10;36.08;34.80;37.23;;
41704;Laerm;861;48.808;9.006;2023-07-31T00:28:37;35.94;34.62;37.21;;
41704;Laerm;861;48.808;9.006;2023-07-31T00:31:03;35.87;34.70;37.03;;
41704;Laerm;861;48.808;9.006;2023-07-31T00:33:34;35.89;34.47;37.12;;
41704;Laerm;861;48.808;9.006;2023-07-31T00:36:01;35.95;34.69;37.22;;
41704;Laerm;861;48.808;9.006;2023-07-31T00:38:27;35.91;34.24;37.21;;
41704;Laerm;861;48.808;9.006;2023-07-31T00:40:54;35.86;34.61;37.11;;
41704;Laerm;861;48.808;9.006;2023-07-31T00:43:20;35.90;34.60;37.09;;
41704;Laerm;861;48.808;9.006;2023-07-31T00:45:47;35.84;34.50;37.11;;
41704;Laerm;861;48.808;9.006;2023-07-31T00:48:14;35.80;34.45;37.04;;
41704;Laerm;861;48.808;9.006;2023-07-31T00:50:41;35.76;34.52;37.07;;
41704;Laerm;861;48.808;9.006;2023-07-31T00:53:07;35.71;34.42;36.92;;
41704;Laerm;861;48.808;9.006;2023-07-31T00:55:35;35.67;34.22;36.75;;
41704;Laerm;861;48.808;9.006;2023-07-31T00:58:01;35.67;34.44;36.80;;
41704;Laerm;861;48.808;9.006;2023-07-31T01:00:28;35.69;34.40;36.89;;
41704;Laerm;861;48.808;9.006;2023-07-31T01:02:55;35.66;34.46;36.75;;
41704;Laerm;861;48.808;9.006;2023-07-31T01:06:06;35.69;34.53;36.97;;
41704;Laerm;861;48.808;9.006;2023-07-31T01:08:51;35.68;34.41;36.80;;
41704;Laerm;861;48.808;9.006;2023-07-31T01:11:31;35.73;34.49;36.98;;
41704;Laerm;861;48.808;9.006;2023-07-31T01:14:00;35.72;34.53;36.83;;
41704;Laerm;861;48.808;9.006;2023-07-31T01:16:27;35.71;34.23;36.96;;
41704;Laerm;861;48.808;9.006;2023-07-31T01:18:54;35.79;34.58;36.97;;
41704;Laerm;861;48.808;9.006;2023-07-31T01:24:52;35.92;34.57;37.01;;
41704;Laerm;861;48.808;9.006;2023-07-31T01:27:40;35.94;34.52;37.27;;
41704;Laerm;861;48.808;9.006;2023-07-31T01:30:24;35.95;34.51;37.27;;
41704;Laerm;861;48.808;9.006;2023-07-31T01:32:55;35.94;34.49;37.21;;
41704;Laerm;861;48.808;9.006;2023-07-31T01:35:24;35.81;34.39;36.95;;
41704;Laerm;861;48.808;9.006;2023-07-31T01:37:53;35.74;34.24;36.92;;
41704;Laerm;861;48.808;9.006;2023-07-31T01:40:22;35.76;34.69;37.04;;
41704;Laerm;861;48.808;9.006;2023-07-31T01:42:49;35.70;34.53;37.10;;
41704;Laerm;861;48.808;9.006;2023-07-31T01:45:16;35.63;34.51;36.74;;
41704;Laerm;861;48.808;9.006;2023-07-31T01:47:43;35.60;34.42;36.70;;
41704;Laerm;861;48.808;9.006;2023-07-31T01:50:10;35.56;34.28;36.74;;
41704;Laerm;861;48.808;9.006;2023-07-31T01:52:37;35.61;34.40;36.69;;
41704;Laerm;861;48.808;9.006;2023-07-31T01:55:04;35.60;34.30;36.87;;
41704;Laerm;861;48.808;9.006;2023-07-31T01:57:31;35.58;34.33;36.68;;
41704;Laerm;861;48.808;9.006;2023-07-31T01:59:57;35.59;34.40;36.86;;
41704;Laerm;861;48.808;9.006;2023-07-31T02:02:24;35.60;34.37;37.06;;
41704;Laerm;861;48.808;9.006;2023-07-31T02:04:50;35.66;34.36;36.80;;
41704;Laerm;861;48.808;9.006;2023-07-31T02:07:17;35.68;34.35;36.89;;
41704;Laerm;861;48.808;9.006;2023-07-31T02:09:43;35.66;34.17;36.73;;
41704;Laerm;861;48.808;9.006;2023-07-31T02:12:10;35.63;34.24;36.75;;
41704;Laerm;861;48.808;9.006;2023-07-31T02:14:38;35.67;34.15;36.87;;
41704;Laerm;861;48.808;9.006;2023-07-31T02:17:05;35.66;34.50;36.85;;
41704;Laerm;861;48.808;9.006;2023-07-31T02:19:31;35.67;34.49;36.98;;
41704;Laerm;861;48.808;9.006;2023-07-31T02:21:58;35.63;34.41;36.79;;
41704;Laerm;861;48.808;9.006;2023-07-31T02:24:25;35.61;34.14;36.94;;
41704;Laerm;861;48.808;9.006;2023-07-31T02:26:52;35.58;34.20;36.79;;
41704;Laerm;861;48.808;9.006;2023-07-31T02:29:18;35.62;34.27;36.78;;
41704;Laerm;861;48.808;9.006;2023-07-31T02:31:45;35.65;34.44;36.85;;
41704;Laerm;861;48.808;9.006;2023-07-31T02:34:11;35.72;34.38;37.12;;
41704;Laerm;861;48.808;9.006;2023-07-31T02:36:38;35.74;34.52;36.87;;
41704;Laerm;861;48.808;9.006;2023-07-31T02:39:05;35.77;34.42;37.01;;
41704;Laerm;861;48.808;9.006;2023-07-31T02:41:31;35.76;34.49;36.95;;
41704;Laerm;861;48.808;9.006;2023-07-31T02:43:58;35.83;34.65;36.97;;
41704;Laerm;861;48.808;9.006;2023-07-31T02:46:24;35.85;34.71;37.26;;
41704;Laerm;861;48.808;9.006;2023-07-31T02:48:51;35.84;34.61;37.21;;
41704;Laerm;861;48.808;9.006;2023-07-31T02:51:18;35.89;34.63;37.07;;
41704;Laerm;861;48.808;9.006;2023-07-31T02:53:44;35.84;34.59;37.16;;
41704;Laerm;861;48.808;9.006;2023-07-31T02:56:11;35.79;34.39;36.97;;
41704;Laerm;861;48.808;9.006;2023-07-31T02:58:37;35.79;34.26;36.93;;
41704;Laerm;861;48.808;9.006;2023-07-31T03:01:04;35.79;34.56;36.93;;
41704;Laerm;861;48.808;9.006;2023-07-31T03:03:30;35.84;34.35;37.24;;
41704;Laerm;861;48.808;9.006;2023-07-31T03:05:57;35.86;34.56;37.04;;
41704;Laerm;861;48.808;9.006;2023-07-31T03:08:24;35.86;34.67;36.95;;
41704;Laerm;861;48.808;9.006;2023-07-31T03:10:50;35.92;34.48;37.02;;
41704;Laerm;861;48.808;9.006;2023-07-31T03:13:17;35.96;34.67;37.12;;
41704;Laerm;861;48.808;9.006;2023-07-31T03:15:44;35.98;34.73;37.18;;
41704;Laerm;861;48.808;9.006;2023-07-31T03:18:10;36.00;34.82;37.07;;
41704;Laerm;861;48.808;9.006;2023-07-31T03:20:37;36.03;34.62;37.31;;
41704;Laerm;861;48.808;9.006;2023-07-31T03:23:03;36.03;34.83;37.15;;
41704;Laerm;861;48.808;9.006;2023-07-31T03:25:30;35.97;34.65;37.29;;
41704;Laerm;861;48.808;9.006;2023-07-31T03:27:57;35.96;34.57;37.05;;
41704;Laerm;861;48.808;9.006;2023-07-31T03:30:23;35.97;34.68;37.18;;
41704;Laerm;861;48.808;9.006;2023-07-31T03:32:49;35.95;34.64;37.24;;
41704;Laerm;861;48.808;9.006;2023-07-31T03:35:16;35.92;34.67;37.11;;
41704;Laerm;861;48.808;9.006;2023-07-31T03:37:42;35.95;34.62;37.12;;
41704;Laerm;861;48.808;9.006;2023-07-31T03:40:10;35.93;34.70;37.23;;
41704;Laerm;861;48.808;9.006;2023-07-31T03:42:37;35.90;34.61;37.11;;
41704;Laerm;861;48.808;9.006;2023-07-31T03:45:04;35.90;34.73;36.96;;
41704;Laerm;861;48.808;9.006;2023-07-31T03:47:31;35.90;34.63;37.11;;
41704;Laerm;861;48.808;9.006;2023-07-31T03:49:58;35.92;34.47;37.05;;
41704;Laerm;861;48.808;9.006;2023-07-31T03:52:24;35.94;34.49;37.12;;
41704;Laerm;861;48.808;9.006;2023-07-31T03:54:51;35.98;34.77;37.39;;
41704;Laerm;861;48.808;9.006;2023-07-31T03:57:17;36.01;34.81;37.24;;
41704;Laerm;861;48.808;9.006;2023-07-31T03:59:44;35.99;34.53;37.34;;
41704;Laerm;861;48.808;9.006;2023-07-31T04:02:10;35.99;34.41;37.24;;
41704;Laerm;861;48.808;9.006;2023-07-31T04:04:37;36.02;34.86;37.25;;
41704;Laerm;861;48.808;9.006;2023-07-31T04:07:04;36.09;34.78;37.24;;
41704;Laerm;861;48.808;9.006;2023-07-31T04:09:30;36.10;34.73;37.25;;
41704;Laerm;861;48.808;9.006;2023-07-31T04:11:57;36.12;34.81;37.48;;
41704;Laerm;861;48.808;9.006;2023-07-31T04:14:24;36.14;35.01;37.53;;
41704;Laerm;861;48.808;9.006;2023-07-31T04:16:51;36.15;34.71;37.32;;
41704;Laerm;861;48.808;9.006;2023-07-31T04:19:18;36.16;34.95;37.43;;
41704;Laerm;861;48.808;9.006;2023-07-31T04:21:45;36.19;35.00;37.51;;
41704;Laerm;861;48.808;9.006;2023-07-31T04:24:11;36.16;34.75;37.38;;
41704;Laerm;861;48.808;9.006;2023-07-31T04:26:38;36.19;34.97;37.47;;
41704;Laerm;861;48.808;9.006;2023-07-31T04:29:04;36.21;34.89;37.57;;
41704;Laerm;861;48.808;9.006;2023-07-31T04:31:31;36.24;35.07;37.46;;
41704;Laerm;861;48.808;9.006;2023-07-31T04:33:58;36.24;35.09;37.55;;
41704;Laerm;861;48.808;9.006;2023-07-31T04:36:24;36.26;35.03;37.49;;
41704;Laerm;861;48.808;9.006;2023-07-31T04:38:51;36.26;34.87;37.62;;
41704;Laerm;861;48.808;9.006;2023-07-31T04:41:18;36.27;34.91;37.42;;
41704;Laerm;861;48.808;9.006;2023-07-31T04:43:44;36.29;34.99;37.47;;
41704;Laerm;861;48.808;9.006;2023-07-31T04:46:11;36.34;35.11;38.62;;
41704;Laerm;861;48.808;9.006;2023-07-31T04:48:38;36.31;35.13;37.54;;
41704;Laerm;861;48.808;9.006;2023-07-31T04:51:04;36.29;35.10;37.74;;
41704;Laerm;861;48.808;9.006;2023-07-31T04:53:31;36.24;34.88;37.54;;
41704;Laerm;861;48.808;9.006;2023-07-31T04:55:57;36.22;34.71;37.57;;
41704;Laerm;861;48.808;9.006;2023-07-31T04:58:24;36.25;34.83;37.43;;
41704;Laerm;861;48.808;9.006;2023-07-31T05:00:50;36.23;35.03;37.30;;
41704;Laerm;861;48.808;9.006;2023-07-31T05:03:17;36.22;34.89;37.53;;
41704;Laerm;861;48.808;9.006;2023-07-31T05:05:44;36.19;34.78;37.44;;
41704;Laerm;861;48.808;9.006;2023-07-31T05:08:10;36.21;34.85;37.41;;
41704;Laerm;861;48.808;9.006;2023-07-31T05:10:37;36.24;34.94;37.42;;
41704;Laerm;861;48.808;9.006;2023-07-31T05:13:04;36.24;34.92;37.40;;
41704;Laerm;861;48.808;9.006;2023-07-31T05:15:30;36.26;35.05;37.51;;
41704;Laerm;861;48.808;9.006;2023-07-31T05:17:57;36.25;35.02;37.48;;
41704;Laerm;861;48.808;9.006;2023-07-31T05:20:24;36.24;34.97;37.69;;
41704;Laerm;861;48.808;9.006;2023-07-31T05:22:51;36.18;34.87;37.33;;
41704;Laerm;861;48.808;9.006;2023-07-31T05:25:18;36.15;34.85;37.30;;
41704;Laerm;861;48.808;9.006;2023-07-31T05:27:45;36.17;34.92;37.38;;
41704;Laerm;861;48.808;9.006;2023-07-31T05:30:12;36.22;34.93;37.22;;
41704;Laerm;861;48.808;9.006;2023-07-31T05:32:38;36.24;34.96;37.48;;
41704;Laerm;861;48.808;9.006;2023-07-31T05:35:06;36.22;34.89;37.40;;
41704;Laerm;861;48.808;9.006;2023-07-31T05:37:32;36.25;35.04;37.31;;
41704;Laerm;861;48.808;9.006;2023-07-31T05:39:59;36.29;35.00;37.52;;
41704;Laerm;861;48.808;9.006;2023-07-31T05:42:25;36.28;34.95;37.42;;
41704;Laerm;861;48.808;9.006;2023-07-31T05:44:52;36.34;35.08;37.51;;
41704;Laerm;861;48.808;9.006;2023-07-31T05:47:18;36.40;35.03;39.71;;
41704;Laerm;861;48.808;9.006;2023-07-31T05:49:45;36.39;35.10;37.63;;
41704;Laerm;861;48.808;9.006;2023-07-31T05:52:12;36.39;35.03;37.61;;
41704;Laerm;861;48.808;9.006;2023-07-31T05:54:38;36.39;35.03;37.63;;
41704;Laerm;861;48.808;9.006;2023-07-31T05:57:05;36.43;34.98;37.92;;
41704;Laerm;861;48.808;9.006;2023-07-31T05:59:32;36.49;34.93;37.56;;
41704;Laerm;861;48.808;9.006;2023-07-31T06:01:59;36.50;35.23;37.72;;
41704;Laerm;861;48.808;9.006;2023-07-31T06:04:26;36.53;35.26;37.89;;
41704;Laerm;861;48.808;9.006;2023-07-31T06:06:53;36.57;35.14;38.09;;
41704;Laerm;861;48.808;9.006;2023-07-31T06:09:20;36.57;35.20;38.20;;
41704;Laerm;861;48.808;9.006;2023-07-31T06:11:47;36.63;35.40;37.90;;
41704;Laerm;861;48.808;9.006;2023-07-31T06:14:13;36.63;35.13;37.95;;
41704;Laerm;861;48.808;9.006;2023-07-31T06:16:40;36.64;35.37;37.81;;
41704;Laerm;861;48.808;9.006;2023-07-31T06:19:07;36.65;35.44;37.83;;
41704;Laerm;861;48.808;9.006;2023-07-31T06:21:34;36.71;35.44;37.76;;
41704;Laerm;861;48.808;9.006;2023-07-31T06:24:05;36.74;35.29;38.01;;
41704;Laerm;861;48.808;9.006;2023-07-31T06:26:32;36.78;35.55;37.92;;
41704;Laerm;861;48.808;9.006;2023-07-31T06:28:58;36.77;35.48;37.98;;
41704;Laerm;861;48.808;9.006;2023-07-31T06:31:25;36.76;35.56;37.80;;
41704;Laerm;861;48.808;9.006;2023-07-31T06:33:54;36.76;35.41;37.93;;
41704;Laerm;861;48.808;9.006;2023-07-31T06:36:20;36.78;35.55;37.89;;
41704;Laerm;861;48.808;9.006;2023-07-31T06:38:47;36.84;35.46;37.98;;
41704;Laerm;861;48.808;9.006;2023-07-31T06:41:14;36.89;35.46;38.07;;
41704;Laerm;861;48.808;9.006;2023-07-31T06:43:40;36.97;35.55;38.28;;
41704;Laerm;861;48.808;9.006;2023-07-31T06:46:08;36.97;35.76;38.21;;
41704;Laerm;861;48.808;9.006;2023-07-31T06:48:36;37.05;35.50;38.43;;
41704;Laerm;861;48.808;9.006;2023-07-31T06:51:05;37.06;35.75;38.34;;
41704;Laerm;861;48.808;9.006;2023-07-31T06:53:32;37.10;35.72;40.47;;
41704;Laerm;861;48.808;9.006;2023-07-31T06:55:59;37.02;35.81;38.40;;
41704;Laerm;861;48.808;9.006;2023-07-31T06:58:25;37.03;35.77;39.14;;
41704;Laerm;861;48.808;9.006;2023-07-31T07:00:52;37.04;35.60;38.15;;
41704;Laerm;861;48.808;9.006;2023-07-31T07:03:21;37.01;35.70;38.30;;
41704;Laerm;861;48.808;9.006;2023-07-31T07:05:48;37.06;35.75;38.31;;
41704;Laerm;861;48.808;9.006;2023-07-31T07:08:14;37.08;35.65;38.44;;
41704;Laerm;861;48.808;9.006;2023-07-31T07:10:41;37.08;35.49;38.38;;
41704;Laerm;861;48.808;9.006;2023-07-31T07:13:08;37.16;35.75;38.55;;
41704;Laerm;861;48.808;9.006;2023-07-31T07:15:34;37.18;35.81;38.50;;
41704;Laerm;861;48.808;9.006;2023-07-31T07:18:01;37.16;35.84;38.34;;
41704;Laerm;861;48.808;9.006;2023-07-31T07:20:27;37.17;35.80;38.38;;
41704;Laerm;861;48.808;9.006;2023-07-31T07:22:54;37.17;35.96;41.45;;
41704;Laerm;861;48.808;9.006;2023-07-31T07:25:20;37.16;35.75;38.58;;
41704;Laerm;861;48.808;9.006;2023-07-31T07:27:47;37.24;35.91;48.14;;
41704;Laerm;861;48.808;9.006;2023-07-31T07:30:14;37.17;35.85;38.98;;
41704;Laerm;861;48.808;9.006;2023-07-31T07:32:41;37.26;35.68;46.62;;
41704;Laerm;861;48.808;9.006;2023-07-31T07:35:08;37.14;35.60;38.37;;
41704;Laerm;861;48.808;9.006;2023-07-31T07:37:34;37.13;35.62;38.55;;
41704;Laerm;861;48.808;9.006;2023-07-31T07:40:01;37.19;35.88;43.83;;
41704;Laerm;861;48.808;9.006;2023-07-31T07:42:27;37.13;35.51;38.31;;
41704;Laerm;861;48.808;9.006;2023-07-31T07:44:54;37.13;35.79;38.91;;
41704;Laerm;861;48.808;9.006;2023-07-31T07:47:20;37.14;35.78;40.48;;
41704;Laerm;861;48.808;9.006;2023-07-31T07:49:47;37.15;35.66;38.40;;
41704;Laerm;861;48.808;9.006;2023-07-31T07:52:13;37.18;35.75;40.41;;
41704;Laerm;861;48.808;9.006;2023-07-31T07:54:40;37.21;36.03;38.58;;
41704;Laerm;861;48.808;9.006;2023-07-31T07:57:06;37.31;35.88;44.59;;
41704;Laerm;861;48.808;9.006;2023-07-31T07:59:33;37.50;35.78;50.07;;
41704;Laerm;861;48.808;9.006;2023-07-31T08:01:59;37.25;35.80;39.83;;
41704;Laerm;861;48.808;9.006;2023-07-31T08:04:26;37.19;35.81;38.67;;
41704;Laerm;861;48.808;9.006;2023-07-31T08:06:52;37.26;35.98;43.63;;
41704;Laerm;861;48.808;9.006;2023-07-31T08:09:19;37.19;35.83;38.52;;
41704;Laerm;861;48.808;9.006;2023-07-31T08:11:45;37.24;35.39;44.31;;
41704;Laerm;861;48.808;9.006;2023-07-31T08:14:12;37.24;35.79;38.79;;
41704;Laerm;861;48.808;9.006;2023-07-31T08:16:39;37.28;35.91;41.47;;
41704;Laerm;861;48.808;9.006;2023-07-31T08:19:05;37.31;35.91;38.70;;
41704;Laerm;861;48.808;9.006;2023-07-31T08:21:54;37.30;36.08;38.59;;
41704;Laerm;861;48.808;9.006;2023-07-31T08:24:21;37.31;35.94;44.09;;
41704;Laerm;861;48.808;9.006;2023-07-31T08:26:47;37.30;35.75;38.61;;
41704;Laerm;861;48.808;9.006;2023-07-31T08:29:14;37.40;35.99;47.55;;
41704;Laerm;861;48.808;9.006;2023-07-31T08:31:41;37.30;35.93;40.34;;
41704;Laerm;861;48.808;9.006;2023-07-31T08:34:07;37.27;36.05;38.77;;
41704;Laerm;861;48.808;9.006;2023-07-31T08:36:34;37.27;35.90;38.45;;
41704;Laerm;861;48.808;9.006;2023-07-31T08:39:00;37.24;36.09;38.46;;
41704;Laerm;861;48.808;9.006;2023-07-31T08:41:28;37.27;35.99;40.15;;
41704;Laerm;861;48.808;9.006;2023-07-31T08:43:58;37.30;35.72;39.66;;
41704;Laerm;861;48.808;9.006;2023-07-31T08:46:26;37.47;35.97;50.50;;
41704;Laerm;861;48.808;9.006;2023-07-31T08:48:55;37.27;36.02;39.29;;
41704;Laerm;861;48.808;9.006;2023-07-31T08:51:25;37.28;35.93;38.54;;
41704;Laerm;861;48.808;9.006;2023-07-31T08:53:53;37.30;35.86;38.90;;
41704;Laerm;861;48.808;9.006;2023-07-31T08:56:21;37.31;35.84;40.27;;
41704;Laerm;861;48.808;9.006;2023-07-31T08:58:51;37.31;35.91;38.67;;
41704;Laerm;861;48.808;9.006;2023-07-31T09:01:19;37.31;35.93;38.88;;
41704;Laerm;861;48.808;9.006;2023-07-31T09:03:49;37.32;35.89;38.52;;
41704;Laerm;861;48.808;9.006;2023-07-31T09:06:23;37.35;35.95;38.71;;
41704;Laerm;861;48.808;9.006;2023-07-31T09:08:52;37.38;36.11;38.70;;
41704;Laerm;861;48.808;9.006;2023-07-31T09:11:23;37.41;35.88;38.58;;
41704;Laerm;861;48.808;9.006;2023-07-31T09:13:53;37.42;36.05;38.69;;
41704;Laerm;861;48.808;9.006;2023-07-31T09:16:32;37.41;36.12;38.76;;
41704;Laerm;861;48.808;9.006;2023-07-31T09:18:59;37.41;36.11;38.60;;
41704;Laerm;861;48.808;9.006;2023-07-31T09:21:28;37.42;36.16;39.06;;
41704;Laerm;861;48.808;9.006;2023-07-31T09:23:56;37.38;35.99;38.62;;
41704;Laerm;861;48.808;9.006;2023-07-31T09:26:38;37.40;36.05;39.32;;
41704;Laerm;861;48.808;9.006;2023-07-31T09:29:18;37.38;35.92;39.02;;
41704;Laerm;861;48.808;9.006;2023-07-31T09:31:45;37.36;35.98;40.87;;
41704;Laerm;861;48.808;9.006;2023-07-31T09:34:12;37.35;35.92;38.52;;
41704;Laerm;861;48.808;9.006;2023-07-31T09:36:50;37.38;36.12;39.39;;
41704;Laerm;861;48.808;9.006;2023-07-31T09:39:19;37.42;35.91;41.22;;
41704;Laerm;861;48.808;9.006;2023-07-31T09:41:57;37.46;36.18;43.69;;
41704;Laerm;861;48.808;9.006;2023-07-31T09:44:41;37.82;36.22;53.04;;
41704;Laerm;861;48.808;9.006;2023-07-31T09:47:23;37.46;36.15;38.69;;
41704;Laerm;861;48.808;9.006;2023-07-31T09:49:53;37.41;36.18;38.58;;
41704;Laerm;861;48.808;9.006;2023-07-31T09:52:20;37.42;35.93;38.69;;
41704;Laerm;861;48.808;9.006;2023-07-31T09:54:46;37.42;36.03;38.53;;
41704;Laerm;861;48.808;9.006;2023-07-31T09:57:16;37.43;36.15;39.94;;
41704;Laerm;861;48.808;9.006;2023-07-31T09:59:45;37.52;36.17;38.79;;
41704;Laerm;861;48.808;9.006;2023-07-31T10:02:22;37.52;36.13;40.49;;
41704;Laerm;861;48.808;9.006;2023-07-31T10:04:59;37.52;36.16;38.66;;
41704;Laerm;861;48.808;9.006;2023-07-31T10:07:37;37.51;35.95;41.38;;
41704;Laerm;861;48.808;9.006;2023-07-31T10:10:08;37.51;36.15;40.64;;
41704;Laerm;861;48.808;9.006;2023-07-31T10:12:39;37.59;36.08;39.32;;
41704;Laerm;861;48.808;9.006;2023-07-31T10:15:08;37.50;36.08;40.51;;
41704;Laerm;861;48.808;9.006;2023-07-31T10:17:36;37.47;36.05;38.90;;
41704;Laerm;861;48.808;9.006;2023-07-31T10:20:05;37.51;36.34;38.71;;
41704;Laerm;861;48.808;9.006;2023-07-31T10:22:35;37.50;36.23;39.13;;
41704;Laerm;861;48.808;9.006;2023-07-31T10:25:03;37.47;36.09;38.87;;
41704;Laerm;861;48.808;9.006;2023-07-31T10:27:30;37.47;36.17;38.90;;
41704;Laerm;861;48.808;9.006;2023-07-31T10:30:00;37.47;36.20;38.75;;
41704;Laerm;861;48.808;9.006;2023-07-31T10:32:31;37.44;36.08;44.46;;
41704;Laerm;861;48.808;9.006;2023-07-31T10:35:01;37.40;35.99;38.62;;
41704;Laerm;861;48.808;9.006;2023-07-31T10:37:42;37.42;36.07;38.83;;
41704;Laerm;861;48.808;9.006;2023-07-31T10:40:41;37.45;35.80;43.61;;
41704;Laerm;861;48.808;9.006;2023-07-31T10:43:08;37.39;36.14;39.43;;
41704;Laerm;861;48.808;9.006;2023-07-31T10:45:43;37.37;36.09;38.64;;
41704;Laerm;861;48.808;9.006;2023-07-31T10:48:16;37.39;36.20;40.63;;
41704;Laerm;861;48.808;9.006;2023-07-31T10:50:55;37.32;35.98;38.68;;
41704;Laerm;861;48.808;9.006;2023-07-31T10:53:33;37.32;35.62;38.71;;
41704;Laerm;861;48.808;9.006;2023-07-31T10:56:06;37.18;35.71;38.68;;
41704;Laerm;861;48.808;9.006;2023-07-31T10:58:35;37.24;35.85;42.00;;
41704;Laerm;861;48.808;9.006;2023-07-31T11:01:06;37.19;35.97;39.40;;
41704;Laerm;861;48.808;9.006;2023-07-31T11:03:48;37.23;35.62;38.49;;
41704;Laerm;861;48.808;9.006;2023-07-31T11:06:17;37.22;35.72;38.40;;
41704;Laerm;861;48.808;9.006;2023-07-31T11:08:51;37.23;35.85;38.62;;
41704;Laerm;861;48.808;9.006;2023-07-31T11:11:20;37.24;35.82;38.78;;
41704;Laerm;861;48.808;9.006;2023-07-31T11:13:51;37.23;35.96;41.23;;
41704;Laerm;861;48.808;9.006;2023-07-31T11:16:25;37.26;35.71;40.02;;
41704;Laerm;861;48.808;9.006;2023-07-31T11:18:53;37.23;35.81;39.13;;
41704;Laerm;861;48.808;9.006;2023-07-31T11:21:25;37.28;35.81;38.40;;
41704;Laerm;861;48.808;9.006;2023-07-31T11:23:57;37.23;35.44;38.46;;
41704;Laerm;861;48.808;9.006;2023-07-31T11:26:25;37.25;35.78;38.57;;
41704;Laerm;861;48.808;9.006;2023-07-31T11:28:52;37.26;35.59;38.69;;
41704;Laerm;861;48.808;9.006;2023-07-31T11:31:19;37.27;36.01;38.77;;
41704;Laerm;861;48.808;9.006;2023-07-31T11:33:46;37.24;35.83;38.46;;
41704;Laerm;861;48.808;9.006;2023-07-31T11:36:19;37.24;35.66;40.07;;
41704;Laerm;861;48.808;9.006;2023-07-31T11:38:47;37.21;35.89;38.65;;
41704;Laerm;861;48.808;9.006;2023-07-31T11:41:18;37.22;35.91;38.43;;
41704;Laerm;861;48.808;9.006;2023-07-31T11:43:47;37.24;35.91;38.53;;
41704;Laerm;861;48.808;9.006;2023-07-31T11:46:14;37.23;35.90;40.07;;
41704;Laerm;861;48.808;9.006;2023-07-31T11:48:41;37.23;35.79;38.60;;
41704;Laerm;861;48.808;9.006;2023-07-31T11:51:13;37.28;36.04;38.50;;
41704;Laerm;861;48.808;9.006;2023-07-31T11:53:51;37.32;35.99;40.31;;
41704;Laerm;861;48.808;9.006;2023-07-31T11:56:21;37.29;35.61;38.47;;
41704;Laerm;861;48.808;9.006;2023-07-31T11:58:57;37.31;35.78;38.74;;
41704;Laerm;861;48.808;9.006;2023-07-31T12:01:26;37.34;35.93;46.49;;
41704;Laerm;861;48.808;9.006;2023-07-31T12:03:58;37.31;35.93;39.05;;
41704;Laerm;861;48.808;9.006;2023-07-31T12:06:38;37.32;36.04;38.76;;
41704;Laerm;861;48.808;9.006;2023-07-31T12:09:05;37.32;35.87;38.64;;
41704;Laerm;861;48.808;9.006;2023-07-31T12:11:45;37.34;35.82;38.70;;
41704;Laerm;861;48.808;9.006;2023-07-31T12:14:26;37.35;35.98;38.62;;
41704;Laerm;861;48.808;9.006;2023-07-31T12:17:00;37.27;35.92;38.56;;
41704;Laerm;861;48.808;9.006;2023-07-31T12:19:27;37.30;35.96;40.49;;
41704;Laerm;861;48.808;9.006;2023-07-31T12:21:59;37.25;35.70;38.98;;
41704;Laerm;861;48.808;9.006;2023-07-31T12:24:29;37.26;35.72;41.22;;
41704;Laerm;861;48.808;9.006;2023-07-31T12:26:55;37.24;35.71;38.79;;
41704;Laerm;861;48.808;9.006;2023-07-31T12:29:22;37.22;35.93;38.50;;
41704;Laerm;861;48.808;9.006;2023-07-31T12:31:49;37.23;35.93;38.51;;
41704;Laerm;861;48.808;9.006;2023-07-31T12:34:21;37.22;35.73;38.49;;
41704;Laerm;861;48.808;9.006;2023-07-31T12:36:48;37.23;35.92;38.68;;
41704;Laerm;861;48.808;9.006;2023-07-31T12:39:17;37.27;36.02;38.46;;
41704;Laerm;861;48.808;9.006;2023-07-31T12:41:44;37.28;35.65;38.58;;
41704;Laerm;861;48.808;9.006;2023-07-31T12:44:10;37.30;35.78;38.57;;
41704;Laerm;861;48.808;9.006;2023-07-31T12:46:37;37.35;35.70;46.42;;
41704;Laerm;861;48.808;9.006;2023-07-31T12:49:03;37.31;35.82;41.05;;
41704;Laerm;861;48.808;9.006;2023-07-31T12:51:30;37.27;35.77;39.69;;
41704;Laerm;861;48.808;9.006;2023-07-31T12:53:56;37.30;35.82;43.26;;
41704;Laerm;861;48.808;9.006;2023-07-31T12:56:23;37.28;35.94;39.40;;
41704;Laerm;861;48.808;9.006;2023-07-31T12:58:50;37.33;35.83;38.70;;
41704;Laerm;861;48.808;9.006;2023-07-31T13:01:16;37.33;35.96;38.52;;
41704;Laerm;861;48.808;9.006;2023-07-31T13:03:43;37.35;36.01;38.71;;
41704;Laerm;861;48.808;9.006;2023-07-31T13:06:09;37.34;35.87;43.87;;
41704;Laerm;861;48.808;9.006;2023-07-31T13:08:37;37.33;35.77;47.01;;
41704;Laerm;861;48.808;9.006;2023-07-31T13:11:04;37.21;35.81;38.89;;
41704;Laerm;861;48.808;9.006;2023-07-31T13:13:31;37.24;35.91;38.52;;
41704;Laerm;861;48.808;9.006;2023-07-31T13:15:57;37.24;35.92;40.42;;
41704;Laerm;861;48.808;9.006;2023-07-31T13:18:24;37.23;35.94;39.72;;
41704;Laerm;861;48.808;9.006;2023-07-31T13:20:51;37.22;35.71;38.93;;
41704;Laerm;861;48.808;9.006;2023-07-31T13:23:17;37.21;35.86;39.27;;
41704;Laerm;861;48.808;9.006;2023-07-31T13:25:44;37.26;35.66;39.53;;
41704;Laerm;861;48.808;9.006;2023-07-31T13:28:11;37.26;36.04;38.70;;
41704;Laerm;861;48.808;9.006;2023-07-31T13:30:37;37.22;35.61;38.65;;
41704;Laerm;861;48.808;9.006;2023-07-31T13:33:04;37.23;35.90;39.53;;
41704;Laerm;861;48.808;9.006;2023-07-31T13:35:31;37.20;35.84;38.29;;
41704;Laerm;861;48.808;9.006;2023-07-31T13:37:58;37.20;35.75;38.36;;
41704;Laerm;861;48.808;9.006;2023-07-31T13:40:24;37.23;35.82;39.84;;
41704;Laerm;861;48.808;9.006;2023-07-31T13:42:51;37.24;35.92;40.11;;
41704;Laerm;861;48.808;9.006;2023-07-31T13:45:18;37.20;35.89;38.49;;
41704;Laerm;861;48.808;9.006;2023-07-31T13:47:45;37.21;35.65;38.48;;
41704;Laerm;861;48.808;9.006;2023-07-31T13:50:12;37.21;35.94;39.17;;
41704;Laerm;861;48.808;9.006;2023-07-31T13:52:39;37.21;35.97;38.42;;
41704;Laerm;861;48.808;9.006;2023-07-31T13:55:08;37.19;35.68;38.99;;
41704;Laerm;861;48.808;9.006;2023-07-31T13:57:35;37.22;35.71;38.52;;
41704;Laerm;861;48.808;9.006;2023-07-31T14:00:01;37.23;35.85;38.42;;
41704;Laerm;861;48.808;9.006;2023-07-31T14:02:28;37.25;35.83;38.58;;
41704;Laerm;861;48.808;9.006;2023-07-31T14:04:55;37.26;35.93;38.50;;
41704;Laerm;861;48.808;9.006;2023-07-31T14:07:22;37.26;35.94;38.55;;
41704;Laerm;861;48.808;9.006;2023-07-31T14:09:48;37.28;35.65;38.51;;
41704;Laerm;861;48.808;9.006;2023-07-31T14:12:15;37.31;36.01;38.58;;
41704;Laerm;861;48.808;9.006;2023-07-31T14:14:41;37.29;35.68;38.44;;
41704;Laerm;861;48.808;9.006;2023-07-31T14:17:08;37.30;35.86;38.49;;
41704;Laerm;861;48.808;9.006;2023-07-31T14:19:34;37.30;35.90;38.68;;